createdAt,value
2019-06-01T00:00:11.946Z,88.70
2019-06-01T00:02:38.689Z,89.50
2019-06-01T00:05:07.558Z,90.00
2019-06-01T00:07:36.285Z,88.30
2019-06-01T00:10:08.437Z,88.60
2019-06-01T00:12:37.051Z,90.20
2019-06-01T00:15:06.688Z,90.90
2019-06-01T00:17:35.372Z,90.40
2019-06-01T00:20:05.011Z,90.70
2019-06-01T00:22:33.571Z,90.40
2019-06-01T00:25:02.142Z,89.50
2019-06-01T00:27:30.826Z,89.40
2019-06-01T00:29:59.329Z,89.80
2019-06-01T00:32:27.952Z,89.90
2019-06-01T00:34:56.503Z,90.20
2019-06-01T00:37:25.126Z,90.50
2019-06-01T00:39:53.659Z,90.10
2019-06-01T00:42:22.288Z,88.50
2019-06-01T00:44:50.917Z,88.40
2019-06-01T00:47:19.675Z,89.00
2019-06-01T00:49:48.853Z,89.40
2019-06-01T00:52:17.568Z,88.40
2019-06-01T00:54:47.255Z,87.60
2019-06-01T00:57:16.055Z,87.20
2019-06-01T00:59:45.910Z,87.70
2019-06-01T01:02:14.617Z,85.60
2019-06-01T01:04:44.299Z,83.90
2019-06-01T01:07:13.066Z,83.40
2019-06-01T01:09:41.633Z,82.20
2019-06-01T01:12:10.274Z,81.10
2019-06-01T01:14:38.850Z,82.10
2019-06-01T01:17:07.396Z,82.30
2019-06-01T01:19:35.948Z,83.30
2019-06-01T01:22:05.832Z,85.30
2019-06-01T01:24:34.380Z,84.10
2019-06-01T01:27:02.863Z,83.20
2019-06-01T01:29:31.396Z,83.90
2019-06-01T01:31:59.971Z,83.30
2019-06-01T01:34:28.566Z,86.20
2019-06-01T01:36:58.099Z,87.70
2019-06-01T01:39:26.715Z,87.60
2019-06-01T01:41:56.255Z,86.90
2019-06-01T01:44:24.927Z,89.30
2019-06-01T01:46:53.403Z,90.60
2019-06-01T01:49:22.073Z,90.50
2019-06-01T01:51:50.651Z,90.20
2019-06-01T01:54:19.489Z,90.00
2019-06-01T01:56:48.031Z,90.00
2019-06-01T01:59:16.608Z,90.30
2019-06-01T02:01:45.147Z,90.00
2019-06-01T02:04:13.702Z,90.60
2019-06-01T02:06:42.380Z,89.90
2019-06-01T02:09:10.939Z,90.40
2019-06-01T02:11:41.300Z,89.00
2019-06-01T02:14:09.882Z,88.30
2019-06-01T02:16:38.632Z,88.30
2019-06-01T02:19:07.425Z,88.50
2019-06-01T02:21:36.010Z,86.90
2019-06-01T02:24:04.838Z,87.70
2019-06-01T02:26:33.448Z,89.10
2019-06-01T02:29:02.991Z,88.80
2019-06-01T02:31:41.719Z,89.50
2019-06-01T02:34:03.955Z,89.40
2019-06-01T02:36:32.810Z,89.30
2019-06-01T02:39:03.106Z,90.10
2019-06-01T02:41:31.505Z,89.70
2019-06-01T02:44:01.629Z,87.50
2019-06-01T02:46:30.346Z,87.90
2019-06-01T02:48:59.817Z,89.60
2019-06-01T02:51:28.868Z,88.60
2019-06-01T02:53:57.667Z,86.50
2019-06-01T02:56:26.362Z,86.50
2019-06-01T02:58:56.034Z,86.80
2019-06-01T03:01:36.599Z,86.90
2019-06-01T03:04:10.090Z,85.10
2019-06-01T03:06:41.045Z,83.50
2019-06-01T03:09:10.510Z,83.20
2019-06-01T03:11:40.508Z,85.60
2019-06-01T03:14:10.740Z,86.90
2019-06-01T03:16:41.599Z,86.60
2019-06-01T03:19:10.395Z,87.40
2019-06-01T03:21:39.108Z,86.80
2019-06-01T03:24:10.726Z,88.80
2019-06-01T03:26:42.460Z,89.80
2019-06-01T03:29:16.912Z,89.20
2019-06-01T03:31:46.133Z,88.40
2019-06-01T03:34:14.827Z,89.20
2019-06-01T03:36:44.083Z,90.00
2019-06-01T03:39:13.082Z,90.00
2019-06-01T03:41:42.180Z,89.00
2019-06-01T03:44:10.787Z,89.30
2019-06-01T03:46:39.351Z,88.10
2019-06-01T03:49:07.973Z,88.70
2019-06-01T03:51:36.520Z,89.00
2019-06-01T03:54:06.883Z,89.10
2019-06-01T03:56:35.563Z,88.80
2019-06-01T03:59:05.096Z,90.00
2019-06-01T04:01:33.915Z,90.40
2019-06-01T04:04:03.065Z,90.20
2019-06-01T04:06:31.826Z,91.30
2019-06-01T04:09:01.564Z,91.10
2019-06-01T04:11:30.269Z,91.20
2019-06-01T04:13:58.882Z,90.20
2019-06-01T04:16:27.446Z,90.10
2019-06-01T04:18:55.909Z,89.50
2019-06-01T04:21:24.449Z,89.40
2019-06-01T04:23:52.951Z,90.40
2019-06-01T04:26:21.572Z,90.10
2019-06-01T04:28:50.235Z,90.40
2019-06-01T04:31:18.963Z,90.50
2019-06-01T04:33:47.911Z,90.70
2019-06-01T04:36:16.620Z,90.60
2019-06-01T04:38:45.206Z,89.80
2019-06-01T04:41:14.768Z,89.70
2019-06-01T04:43:43.383Z,90.30
2019-06-01T04:46:12.335Z,90.70
2019-06-01T04:48:41.176Z,91.20
2019-06-01T04:51:11.693Z,91.10
2019-06-01T04:53:39.968Z,91.10
2019-06-01T04:56:09.045Z,90.70
2019-06-01T04:58:37.770Z,91.00
2019-06-01T05:01:06.904Z,90.70
2019-06-01T05:03:35.614Z,90.30
2019-06-01T05:06:05.063Z,90.30
2019-06-01T05:08:33.766Z,90.30
2019-06-01T05:11:05.383Z,90.70
2019-06-01T05:13:32.835Z,90.50
2019-06-01T05:16:01.425Z,89.80
2019-06-01T05:18:29.983Z,89.80
2019-06-01T05:20:58.617Z,89.90
2019-06-01T05:23:27.625Z,87.50
2019-06-01T05:25:56.247Z,86.80
2019-06-01T05:28:24.877Z,85.90
2019-06-01T05:30:53.450Z,85.00
2019-06-01T05:33:36.489Z,82.80
2019-06-01T05:35:52.419Z,82.20
2019-06-01T05:38:20.998Z,80.20
2019-06-01T05:40:49.624Z,79.70
2019-06-01T05:43:19.915Z,81.20
2019-06-01T05:45:48.427Z,79.80
2019-06-01T05:48:24.616Z,80.10
2019-06-01T05:50:47.222Z,81.50
2019-06-01T05:53:16.741Z,80.60
2019-06-01T05:55:45.471Z,80.50
2019-06-01T05:58:15.119Z,77.20
2019-06-01T06:00:44.209Z,75.50
2019-06-01T06:03:15.408Z,76.60
2019-06-01T06:05:43.081Z,77.10
2019-06-01T06:08:12.829Z,76.70
2019-06-01T06:10:42.012Z,76.40
2019-06-01T06:13:11.096Z,75.60
2019-06-01T06:15:39.984Z,75.30
2019-06-01T06:18:08.531Z,74.10
2019-06-01T06:20:37.184Z,72.30
2019-06-01T06:23:05.773Z,74.20
2019-06-01T06:25:37.681Z,72.40
2019-06-01T06:28:04.794Z,72.00
2019-06-01T06:30:33.462Z,71.60
2019-06-01T06:33:02.359Z,71.70
2019-06-01T06:35:30.986Z,71.30
2019-06-01T06:37:59.517Z,71.90
2019-06-01T06:40:28.192Z,72.70
2019-06-01T06:42:56.764Z,74.40
2019-06-01T06:45:25.446Z,74.40
2019-06-01T06:47:54.068Z,72.80
2019-06-01T06:50:23.589Z,74.00
2019-06-01T06:52:52.219Z,73.20
2019-06-01T06:55:21.896Z,73.70
2019-06-01T06:57:50.622Z,75.40
2019-06-01T07:00:20.614Z,76.20
2019-06-01T07:02:49.387Z,76.40
2019-06-01T07:05:19.027Z,75.10
2019-06-01T07:07:47.977Z,73.60
2019-06-01T07:10:35.971Z,74.20
2019-06-01T07:13:04.770Z,76.40
2019-06-01T07:15:33.410Z,76.00
2019-06-01T07:18:02.187Z,73.90
2019-06-01T07:20:31.949Z,73.80
2019-06-01T07:23:00.518Z,72.10
2019-06-01T07:25:29.221Z,74.80
2019-06-01T07:27:57.793Z,73.50
2019-06-01T07:30:26.416Z,74.00
2019-06-01T07:32:54.934Z,75.90
2019-06-01T07:35:24.450Z,76.50
2019-06-01T07:37:53.072Z,76.30
2019-06-01T07:40:22.968Z,78.20
2019-06-01T07:42:51.820Z,75.70
2019-06-01T07:45:20.821Z,73.10
2019-06-01T07:47:49.641Z,72.00
2019-06-01T07:50:18.363Z,73.50
2019-06-01T07:52:46.914Z,73.30
2019-06-01T07:55:15.552Z,73.00
2019-06-01T07:57:44.443Z,72.90
2019-06-01T08:00:13.258Z,74.40
2019-06-01T08:02:41.775Z,71.80
2019-06-01T08:05:10.441Z,70.80
2019-06-01T08:07:38.972Z,70.70
2019-06-01T08:10:07.721Z,69.30
2019-06-01T08:12:36.356Z,70.20
2019-06-01T08:15:06.655Z,69.20
2019-06-01T08:17:35.205Z,70.60
2019-06-01T08:20:04.443Z,71.40
2019-06-01T08:22:33.211Z,72.00
2019-06-01T08:25:01.824Z,71.20
2019-06-01T08:27:30.596Z,72.00
2019-06-01T08:29:59.337Z,74.90
2019-06-01T08:32:28.709Z,73.80
2019-06-01T08:35:07.884Z,71.10
2019-06-01T08:37:27.597Z,68.90
2019-06-01T08:39:59.163Z,69.00
2019-06-01T08:42:27.393Z,69.50
2019-06-01T08:44:56.014Z,70.20
2019-06-01T08:47:25.646Z,71.80
2019-06-01T08:49:54.409Z,69.90
2019-06-01T08:52:23.876Z,68.70
2019-06-01T08:54:52.671Z,70.60
2019-06-01T08:57:22.134Z,70.50
2019-06-01T08:59:50.784Z,70.20
2019-06-01T09:02:19.359Z,67.70
2019-06-01T09:04:47.942Z,65.50
2019-06-01T09:07:16.587Z,64.50
2019-06-01T09:09:45.371Z,65.30
2019-06-01T09:12:13.955Z,66.00
2019-06-01T09:14:42.517Z,66.50
2019-06-01T09:17:11.214Z,66.80
2019-06-01T09:19:39.843Z,66.40
2019-06-01T09:22:08.433Z,65.50
2019-06-01T09:24:37.072Z,66.30
2019-06-01T09:27:05.750Z,67.10
2019-06-01T09:29:34.342Z,65.60
2019-06-01T09:32:02.844Z,64.20
2019-06-01T09:34:32.416Z,65.00
2019-06-01T09:37:01.398Z,64.40
2019-06-01T09:39:30.968Z,62.70
2019-06-01T09:41:59.636Z,62.50
2019-06-01T09:44:29.123Z,60.80
2019-06-01T09:46:57.735Z,60.10
2019-06-01T09:49:27.269Z,58.50
2019-06-01T09:52:00.184Z,58.00
2019-06-01T09:54:29.391Z,59.70
2019-06-01T09:56:58.997Z,59.50
2019-06-01T09:59:27.754Z,58.70
2019-06-01T10:01:56.293Z,57.00
2019-06-01T10:04:24.879Z,56.10
2019-06-01T10:06:53.900Z,57.40
2019-06-01T10:09:22.454Z,58.50
2019-06-01T10:11:51.166Z,57.70
2019-06-01T10:14:19.875Z,57.00
2019-06-01T10:16:48.492Z,56.90
2019-06-01T10:19:17.067Z,57.00
2019-06-01T10:21:45.680Z,57.30
2019-06-01T10:24:14.281Z,55.90
2019-06-01T10:26:42.907Z,56.20
2019-06-01T10:29:11.655Z,58.10
2019-06-01T10:31:41.636Z,57.20
2019-06-01T10:34:10.547Z,57.40
2019-06-01T10:36:40.158Z,57.10
2019-06-01T10:39:08.956Z,57.40
2019-06-01T10:41:37.768Z,56.10
2019-06-01T10:44:06.504Z,56.10
2019-06-01T10:46:35.984Z,55.40
2019-06-01T10:49:05.097Z,54.20
2019-06-01T10:51:34.037Z,53.10
2019-06-01T10:54:02.860Z,53.00
2019-06-01T10:56:32.299Z,53.70
2019-06-01T10:59:01.418Z,51.90
2019-06-01T11:01:32.453Z,52.00
2019-06-01T11:04:19.753Z,52.00
2019-06-01T11:06:49.013Z,53.50
2019-06-01T11:09:17.636Z,53.00
2019-06-01T11:11:46.348Z,51.90
2019-06-01T11:14:14.830Z,53.30
2019-06-01T11:16:44.076Z,52.50
2019-06-01T11:19:12.966Z,51.60
2019-06-01T11:21:41.802Z,50.30
2019-06-01T11:24:10.453Z,51.20
2019-06-01T11:26:39.714Z,51.70
2019-06-01T11:29:08.362Z,52.30
2019-06-01T11:31:38.281Z,51.00
2019-06-01T11:34:07.032Z,48.60
2019-06-01T11:36:36.199Z,46.20
2019-06-01T11:39:07.135Z,45.10
2019-06-01T11:41:36.386Z,44.20
2019-06-01T11:44:05.201Z,44.20
2019-06-01T11:46:34.735Z,44.00
2019-06-01T11:49:03.366Z,43.90
2019-06-01T11:51:32.054Z,43.50
2019-06-01T11:54:00.717Z,42.70
2019-06-01T11:56:29.412Z,41.00
2019-06-01T11:58:58.072Z,42.80
2019-06-01T12:01:26.604Z,41.70
2019-06-01T12:03:55.103Z,41.40
2019-06-01T12:06:23.729Z,40.40
2019-06-01T12:08:52.288Z,40.10
2019-06-01T12:11:20.789Z,39.60
2019-06-01T12:13:49.341Z,39.60
2019-06-01T12:16:17.897Z,39.30
2019-06-01T12:18:46.905Z,40.20
2019-06-01T12:21:15.546Z,40.50
2019-06-01T12:23:45.527Z,39.40
2019-06-01T12:26:14.324Z,39.50
2019-06-01T12:28:43.791Z,38.80
2019-06-01T12:31:12.520Z,39.70
2019-06-01T12:33:41.992Z,37.80
2019-06-01T12:36:10.723Z,35.50
2019-06-01T12:38:53.183Z,33.70
2019-06-01T12:41:23.012Z,35.10
2019-06-01T12:44:09.171Z,35.20
2019-06-01T12:46:41.762Z,35.10
2019-06-01T12:49:10.633Z,36.00
2019-06-01T12:51:40.602Z,36.10
2019-06-01T12:54:09.529Z,36.50
2019-06-01T12:56:38.162Z,35.50
2019-06-01T12:59:07.071Z,34.50
2019-06-01T13:01:35.682Z,35.00
2019-06-01T13:04:04.583Z,34.80
2019-06-01T13:06:33.243Z,35.30
2019-06-01T13:09:01.847Z,33.00
2019-06-01T13:11:30.473Z,31.40
2019-06-01T13:13:59.054Z,30.80
2019-06-01T13:16:27.878Z,30.00
2019-06-01T13:18:56.514Z,31.50
2019-06-01T13:21:27.618Z,31.80
2019-06-01T13:23:55.368Z,33.10
2019-06-01T13:26:25.248Z,34.20
2019-06-01T13:28:53.906Z,35.20
2019-06-01T13:31:22.461Z,35.10
2019-06-01T13:33:52.375Z,35.40
2019-06-01T13:36:21.378Z,34.10
2019-06-01T13:38:50.871Z,32.80
2019-06-01T13:41:19.496Z,32.00
2019-06-01T13:43:49.346Z,33.20
2019-06-01T13:46:18.185Z,34.00
2019-06-01T13:48:47.473Z,34.80
2019-06-01T13:51:16.192Z,36.00
2019-06-01T13:53:44.818Z,36.50
2019-06-01T13:56:13.438Z,36.10
2019-06-01T13:58:42.080Z,36.60
2019-06-01T14:01:10.725Z,37.60
2019-06-01T14:03:39.303Z,36.80
2019-06-01T14:06:07.915Z,36.20
2019-06-01T14:08:36.552Z,36.60
2019-06-01T14:11:05.276Z,35.70
2019-06-01T14:13:33.936Z,35.30
2019-06-01T14:16:02.495Z,33.80
2019-06-01T14:18:31.130Z,34.70
2019-06-01T14:20:59.974Z,35.00
2019-06-01T14:23:28.583Z,36.50
2019-06-01T14:25:57.051Z,34.50
2019-06-01T14:28:25.642Z,35.40
2019-06-01T14:30:54.371Z,35.80
2019-06-01T14:33:42.400Z,36.20
2019-06-01T14:36:11.107Z,36.00
2019-06-01T14:38:47.047Z,37.50
2019-06-01T14:41:09.963Z,37.40
2019-06-01T14:43:38.626Z,37.70
2019-06-01T14:46:07.292Z,37.20
2019-06-01T14:48:35.845Z,37.00
2019-06-01T14:51:04.481Z,36.10
2019-06-01T14:53:33.110Z,34.20
2019-06-01T14:56:01.674Z,33.70
2019-06-01T14:58:30.166Z,33.10
2019-06-01T15:00:58.901Z,30.60
2019-06-01T15:03:27.502Z,29.70
2019-06-01T15:05:56.576Z,27.80
2019-06-01T15:08:25.254Z,28.50
2019-06-01T15:10:55.279Z,30.50
2019-06-01T15:13:24.036Z,33.30
2019-06-01T15:15:53.429Z,37.00
2019-06-01T15:18:22.088Z,40.00
2019-06-01T15:20:51.679Z,38.80
2019-06-01T15:23:20.275Z,37.50
2019-06-01T15:25:50.154Z,36.50
2019-06-01T15:28:19.002Z,38.10
2019-06-01T15:30:48.285Z,38.00
2019-06-01T15:33:16.876Z,36.60
2019-06-01T15:35:45.353Z,37.40
2019-06-01T15:38:13.929Z,37.60
2019-06-01T15:40:42.682Z,39.50
2019-06-01T15:43:11.267Z,40.10
2019-06-01T15:45:41.353Z,37.10
2019-06-01T15:48:10.251Z,39.50
2019-06-01T15:50:38.878Z,39.60
2019-06-01T15:53:26.729Z,42.80
2019-06-01T15:55:56.482Z,42.80
2019-06-01T15:58:25.246Z,42.10
2019-06-01T16:00:54.939Z,40.80
2019-06-01T16:03:23.636Z,40.10
2019-06-01T16:05:53.032Z,36.90
2019-06-01T16:08:21.771Z,35.60
2019-06-01T16:10:50.391Z,35.60
2019-06-01T16:13:18.887Z,36.10
2019-06-01T16:15:47.479Z,38.80
2019-06-01T16:18:16.112Z,40.70
2019-06-01T16:20:44.762Z,40.00
2019-06-01T16:23:13.377Z,40.30
2019-06-01T16:25:42.139Z,41.00
2019-06-01T16:28:10.869Z,41.70
2019-06-01T16:30:39.560Z,38.60
2019-06-01T16:33:08.113Z,38.20
2019-06-01T16:35:36.917Z,38.60
2019-06-01T16:38:05.948Z,40.80
2019-06-01T16:40:34.694Z,41.00
2019-06-01T16:43:03.614Z,40.70
2019-06-01T16:45:32.366Z,40.80
2019-06-01T16:48:01.627Z,41.70
2019-06-01T16:50:30.390Z,41.60
2019-06-01T16:53:00.188Z,41.90
2019-06-01T16:55:31.489Z,43.50
2019-06-01T16:57:59.207Z,44.70
2019-06-01T17:00:27.724Z,44.20
2019-06-01T17:02:56.875Z,42.70
2019-06-01T17:05:25.576Z,42.00
2019-06-01T17:07:54.146Z,41.20
2019-06-01T17:10:26.547Z,40.50
2019-06-01T17:12:53.085Z,40.50
2019-06-01T17:15:21.732Z,40.60
2019-06-01T17:17:50.438Z,40.50
2019-06-01T17:20:37.327Z,41.00
2019-06-01T17:23:22.934Z,41.30
2019-06-01T17:25:36.215Z,42.30
2019-06-01T17:28:07.091Z,43.40
2019-06-01T17:30:36.021Z,43.70
2019-06-01T17:33:06.532Z,43.70
2019-06-01T17:35:36.291Z,43.40
2019-06-01T17:38:07.316Z,44.40
2019-06-01T17:40:39.681Z,44.50
2019-06-01T17:43:07.029Z,44.60
2019-06-01T17:45:36.025Z,43.90
2019-06-01T17:48:18.087Z,44.00
2019-06-01T17:50:36.192Z,44.10
2019-06-01T17:53:05.067Z,43.50
2019-06-01T17:55:38.335Z,43.70
2019-06-01T17:58:07.912Z,44.90
2019-06-01T18:00:36.883Z,46.20
2019-06-01T18:03:07.995Z,44.20
2019-06-01T18:05:37.302Z,43.50
2019-06-01T18:08:06.419Z,43.60
2019-06-01T18:10:50.232Z,42.80
2019-06-01T18:13:08.408Z,44.10
2019-06-01T18:15:37.462Z,43.70
2019-06-01T18:18:06.616Z,43.60
2019-06-01T18:20:35.982Z,44.40
2019-06-01T18:23:07.201Z,44.50
2019-06-01T18:25:35.595Z,44.80
2019-06-01T18:28:04.567Z,42.70
2019-06-01T18:30:33.536Z,41.70
2019-06-01T18:33:03.009Z,40.60
2019-06-01T18:35:32.485Z,42.50
2019-06-01T18:38:01.147Z,42.40
2019-06-01T18:40:29.706Z,41.50
2019-06-01T18:43:01.908Z,41.50
2019-06-01T18:45:30.761Z,41.70
2019-06-01T18:47:59.557Z,43.20
2019-06-01T18:50:28.413Z,43.50
2019-06-01T18:52:57.096Z,42.60
2019-06-01T18:55:27.690Z,42.70
2019-06-01T18:57:59.052Z,41.40
2019-06-01T19:00:27.740Z,41.80
2019-06-01T19:02:56.378Z,42.00
2019-06-01T19:05:25.220Z,41.80
2019-06-01T19:07:53.934Z,42.50
2019-06-01T19:10:23.008Z,42.90
2019-06-01T19:12:51.911Z,43.80
2019-06-01T19:15:28.592Z,42.80
2019-06-01T19:17:51.215Z,42.70
2019-06-01T19:20:19.863Z,42.80
2019-06-01T19:22:48.488Z,43.20
2019-06-01T19:25:17.244Z,43.10
2019-06-01T19:27:45.971Z,43.70
2019-06-01T19:30:17.143Z,44.10
2019-06-01T19:32:45.872Z,43.80
2019-06-01T19:35:15.383Z,43.60
2019-06-01T19:37:44.373Z,42.70
2019-06-01T19:40:15.525Z,42.50
2019-06-01T19:42:44.128Z,43.40
2019-06-01T19:45:24.494Z,43.80
2019-06-01T19:47:43.137Z,43.10
2019-06-01T19:50:12.181Z,42.90
2019-06-01T19:52:40.789Z,42.40
2019-06-01T19:55:10.708Z,42.70
2019-06-01T19:57:39.484Z,42.60
2019-06-01T20:00:08.291Z,42.70
2019-06-01T20:02:36.865Z,43.00
2019-06-01T20:05:06.839Z,42.70
2019-06-01T20:07:35.523Z,42.80
2019-06-01T20:10:06.631Z,43.60
2019-06-01T20:12:35.278Z,44.30
2019-06-01T20:15:05.655Z,44.30
2019-06-01T20:17:34.345Z,44.90
2019-06-01T20:20:03.385Z,45.20
2019-06-01T20:22:31.931Z,45.60
2019-06-01T20:25:00.640Z,46.10
2019-06-01T20:27:29.236Z,46.80
2019-06-01T20:29:57.834Z,48.10
2019-06-01T20:32:26.452Z,48.40
2019-06-01T20:34:56.173Z,48.90
2019-06-01T20:37:24.794Z,49.50
2019-06-01T20:39:53.292Z,49.50
2019-06-01T20:42:30.216Z,50.00
2019-06-01T20:44:52.069Z,50.30
2019-06-01T20:47:21.081Z,51.00
2019-06-01T20:49:49.772Z,52.00
2019-06-01T20:52:19.010Z,52.30
2019-06-01T20:54:47.708Z,53.60
2019-06-01T20:57:17.472Z,54.20
2019-06-01T20:59:46.228Z,55.40
2019-06-01T21:02:15.736Z,55.50
2019-06-01T21:04:44.897Z,55.50
2019-06-01T21:07:13.711Z,55.50
2019-06-01T21:09:42.478Z,55.50
2019-06-01T21:12:11.183Z,55.90
2019-06-01T21:14:41.026Z,55.70
2019-06-01T21:17:10.067Z,55.10
2019-06-01T21:19:38.752Z,55.40
2019-06-01T21:22:07.404Z,55.10
2019-06-01T21:24:36.154Z,55.60
2019-06-01T21:27:04.966Z,55.70
2019-06-01T21:29:33.849Z,57.00
2019-06-01T21:32:02.505Z,56.40
2019-06-01T21:34:31.235Z,56.10
2019-06-01T21:36:59.794Z,57.10
2019-06-01T21:39:28.427Z,57.80
2019-06-01T21:41:57.015Z,57.80
2019-06-01T21:44:25.782Z,58.30
2019-06-01T21:46:54.469Z,58.30
2019-06-01T21:49:24.118Z,58.90
2019-06-01T21:51:53.232Z,59.20
2019-06-01T21:54:22.306Z,59.80
2019-06-01T21:56:50.888Z,59.80
2019-06-01T21:59:20.509Z,59.70
2019-06-01T22:01:49.245Z,59.90
2019-06-01T22:04:18.713Z,61.00
2019-06-01T22:06:47.484Z,61.30
2019-06-01T22:09:17.159Z,59.80
2019-06-01T22:11:45.900Z,59.30
2019-06-01T22:14:14.526Z,58.70
2019-06-01T22:16:43.375Z,59.30
2019-06-01T22:19:11.960Z,58.60
2019-06-01T22:21:40.457Z,58.70
2019-06-01T22:24:08.942Z,59.20
2019-06-01T22:26:37.510Z,59.80
2019-06-01T22:29:06.144Z,59.60
2019-06-01T22:31:34.921Z,59.50
2019-06-01T22:34:03.479Z,60.40
2019-06-01T22:36:32.116Z,61.80
2019-06-01T22:39:00.709Z,61.80
2019-06-01T22:41:29.342Z,61.50
2019-06-01T22:43:58.191Z,61.50
2019-06-01T22:46:26.931Z,61.50
2019-06-01T22:48:55.825Z,61.30
2019-06-01T22:51:24.980Z,60.80
2019-06-01T22:53:53.529Z,60.60
2019-06-01T22:56:23.204Z,60.80
2019-06-01T22:58:51.933Z,60.70
2019-06-01T23:01:21.028Z,61.60
2019-06-01T23:03:49.674Z,61.30
2019-06-01T23:06:18.246Z,60.50
2019-06-01T23:08:46.862Z,60.10
2019-06-01T23:11:15.503Z,60.20
2019-06-01T23:13:53.156Z,60.10
2019-06-01T23:16:14.271Z,61.40
2019-06-01T23:18:42.961Z,61.40
2019-06-01T23:21:11.522Z,60.50
2019-06-01T23:23:40.083Z,60.00
2019-06-01T23:26:08.733Z,60.00
2019-06-01T23:28:38.745Z,60.20
2019-06-01T23:31:07.611Z,60.40
2019-06-01T23:33:36.195Z,60.40
2019-06-01T23:36:04.896Z,61.30
2019-06-01T23:38:33.514Z,62.00
2019-06-01T23:41:02.086Z,61.80
2019-06-01T23:43:30.977Z,61.70
2019-06-01T23:45:59.602Z,61.40
2019-06-01T23:48:29.316Z,61.10
2019-06-01T23:50:57.944Z,61.40
2019-06-01T23:53:27.491Z,61.60
2019-06-01T23:55:56.201Z,61.70
2019-06-01T23:58:25.913Z,63.20
